Time;durP1;ratioP1;P1;durP2;ratioP2;P2;SDS_P1;SDS_P2;PMS_P1;PMS_P2;Temp;Humidity;BMP_temperature;BMP_pressure;BME280_temperature;BME280_humidity;BME280_pressure;Samples;Min_cycle;Max_cycle;Signal;HPM_P1;HPM_P2
2022/03/02 00:01:41;;;;;;;12.40;8.07;;;6.40;99.90;;;;;;5089183;28;20467;-71
2022/03/02 00:04:06;;;;;;;10.70;6.77;;;6.50;99.90;;;;;;5111699;22;20448;-82
2022/03/02 00:06:32;;;;;;;13.63;8.17;;;6.60;99.90;;;;;;5090474;28;20280;-79
2022/03/02 00:08:58;;;;;;;11.00;7.10;;;6.50;99.90;;;;;;5074878;28;20203;-79
2022/03/02 00:11:24;;;;;;;11.10;8.27;;;6.50;99.90;;;;;;5093761;28;20177;-79
2022/03/02 00:13:49;;;;;;;11.20;7.10;;;6.50;99.90;;;;;;5093603;28;20910;-79
2022/03/02 00:16:17;;;;;;;10.57;7.03;;;6.40;99.90;;;;;;5093569;28;20422;-79
2022/03/02 00:18:43;;;;;;;12.70;7.43;;;6.30;99.90;;;;;;5075287;28;20211;-79
2022/03/02 00:21:09;;;;;;;12.70;7.97;;;6.20;99.90;;;;;;5093344;28;20417;-79
2022/03/02 00:23:35;;;;;;;11.40;7.43;;;6.10;99.90;;;;;;5093531;28;20416;-79
2022/03/02 00:26:01;;;;;;;12.27;7.60;;;6.00;99.90;;;;;;5075098;28;20445;-79
2022/03/02 00:28:27;;;;;;;11.00;8.27;;;5.90;99.90;;;;;;5075128;28;20187;-80
2022/03/02 00:30:52;;;;;;;9.97;6.73;;;5.80;99.90;;;;;;5093404;28;20415;-80
2022/03/02 00:33:18;;;;;;;12.60;7.10;;;5.80;99.90;;;;;;5093900;28;20216;-82
2022/03/02 00:35:44;;;;;;;13.10;7.60;;;5.70;99.90;;;;;;5093302;28;20203;-82
2022/03/02 00:38:10;;;;;;;15.03;6.77;;;5.60;99.90;;;;;;5093243;28;20411;-82
2022/03/02 00:40:40;;;;;;;14.60;8.13;;;5.50;99.90;;;;;;5093389;28;20183;-81
2022/03/02 00:43:07;;;;;;;15.30;7.60;;;5.40;99.90;;;;;;5093353;28;20415;-82
2022/03/02 00:45:33;;;;;;;12.97;7.20;;;5.30;99.90;;;;;;5093134;28;20437;-81
2022/03/02 00:48:00;;;;;;;11.73;7.20;;;5.30;99.90;;;;;;5074931;28;21140;-82
2022/03/02 00:50:26;;;;;;;10.77;7.67;;;5.20;99.90;;;;;;5093183;28;20446;-82
2022/03/02 00:52:52;;;;;;;11.20;7.17;;;5.10;99.90;;;;;;5093027;28;20503;-82
2022/03/02 00:55:19;;;;;;;11.23;7.40;;;5.10;99.90;;;;;;5092935;28;20437;-82
2022/03/02 00:57:45;;;;;;;12.83;8.17;;;5.00;99.90;;;;;;5074889;28;20943;-82
2022/03/02 01:00:11;;;;;;;11.50;7.60;;;4.90;99.90;;;;;;5092994;28;20408;-81
2022/03/02 01:02:37;;;;;;;12.57;8.70;;;4.90;99.90;;;;;;5092974;28;20178;-82
2022/03/02 01:05:04;;;;;;;10.07;6.80;;;4.90;99.90;;;;;;5092733;28;20446;-82
2022/03/02 01:07:30;;;;;;;8.10;6.47;;;4.80;99.90;;;;;;5074467;28;20428;-82
2022/03/02 01:09:55;;;;;;;13.27;7.87;;;4.80;99.90;;;;;;5092691;28;20411;-82
2022/03/02 01:12:21;;;;;;;10.13;6.13;;;4.70;99.90;;;;;;5092684;28;20202;-82
2022/03/02 01:14:46;;;;;;;12.73;7.07;;;4.70;99.90;;;;;;5074533;28;20199;-82
2022/03/02 01:17:12;;;;;;;8.93;6.40;;;4.60;99.90;;;;;;5092461;28;20720;-82
2022/03/02 01:19:39;;;;;;;11.90;6.97;;;4.60;99.90;;;;;;5092256;28;20189;-82
2022/03/02 01:22:05;;;;;;;12.70;7.07;;;4.50;99.90;;;;;;5092651;28;20184;-82
2022/03/02 01:24:31;;;;;;;10.70;6.83;;;4.50;99.90;;;;;;5092127;28;20482;-82
2022/03/02 01:26:57;;;;;;;12.50;7.00;;;4.40;99.90;;;;;;5092265;28;20903;-82
2022/03/02 01:29:23;;;;;;;9.90;6.77;;;4.40;99.90;;;;;;5092498;28;20614;-81
2022/03/02 01:31:49;;;;;;;10.37;6.53;;;4.40;99.90;;;;;;5074667;28;20707;-82
2022/03/02 01:34:15;;;;;;;10.43;6.87;;;4.40;99.90;;;;;;5092515;28;20444;-82
2022/03/02 01:36:41;;;;;;;10.67;7.43;;;4.40;99.90;;;;;;5092238;28;20867;-82
2022/03/02 01:39:06;;;;;;;9.73;5.97;;;4.40;99.90;;;;;;5092675;28;20840;-82
2022/03/02 01:41:33;;;;;;;9.97;6.87;;;4.40;99.90;;;;;;5074119;28;20190;-82
2022/03/02 01:43:59;;;;;;;8.60;6.50;;;4.50;99.90;;;;;;5073960;28;20188;-81
2022/03/02 01:46:25;;;;;;;8.77;6.33;;;4.50;99.90;;;;;;5092014;28;20791;-82
2022/03/02 01:48:51;;;;;;;8.93;6.70;;;4.50;99.90;;;;;;5074090;28;20427;-81
2022/03/02 01:51:16;;;;;;;11.30;6.90;;;4.50;99.90;;;;;;5092125;28;20179;-82
2022/03/02 01:53:43;;;;;;;9.67;6.67;;;4.40;99.90;;;;;;5073966;28;20206;-82
2022/03/02 01:56:09;;;;;;;13.40;8.80;;;4.40;99.90;;;;;;5092087;28;20582;-82
2022/03/02 01:58:34;;;;;;;9.20;6.70;;;4.40;99.90;;;;;;5092002;28;20863;-81
2022/03/02 02:01:00;;;;;;;8.30;5.73;;;4.30;99.90;;;;;;5092173;28;20432;-81
2022/03/02 02:03:27;;;;;;;11.90;7.10;;;4.30;99.90;;;;;;5091984;28;20260;-81
2022/03/02 02:05:53;;;;;;;14.97;7.47;;;4.20;99.90;;;;;;5091870;28;20210;-81
2022/03/02 02:08:19;;;;;;;12.40;7.50;;;4.10;99.90;;;;;;5091915;28;20464;-81
2022/03/02 02:10:44;;;;;;;9.30;5.80;;;4.00;99.90;;;;;;5092072;28;20503;-81
2022/03/02 02:13:10;;;;;;;10.53;6.90;;;4.00;99.90;;;;;;5091855;28;20250;-82
2022/03/02 02:15:36;;;;;;;14.40;6.90;;;3.80;99.90;;;;;;5092007;28;20269;-82
2022/03/02 02:18:02;;;;;;;10.13;6.33;;;3.70;99.90;;;;;;5091582;28;20174;-81
2022/03/02 02:20:28;;;;;;;11.50;6.57;;;3.60;99.90;;;;;;5092014;28;20178;-82
2022/03/02 02:22:53;;;;;;;13.60;7.07;;;3.60;99.90;;;;;;5091899;28;20469;-81
2022/03/02 02:25:19;;;;;;;11.10;7.13;;;3.50;99.90;;;;;;5091747;28;20247;-82
2022/03/02 02:27:47;;;;;;;10.90;7.00;;;3.40;99.90;;;;;;5091616;28;20184;-81
2022/03/02 02:30:14;;;;;;;9.83;6.93;;;3.30;99.90;;;;;;5091844;28;20420;-82
2022/03/02 02:32:41;;;;;;;11.53;6.33;;;3.30;99.90;;;;;;5095737;28;20459;-82
2022/03/02 02:35:09;;;;;;;11.13;7.43;;;3.30;99.90;;;;;;5095630;28;20430;-81
2022/03/02 02:37:36;;;;;;;10.03;6.73;;;3.20;99.90;;;;;;5095418;28;20407;-82
2022/03/02 02:40:16;;;;;;;10.00;6.47;;;3.20;99.90;;;;;;5095735;28;20411;-82
2022/03/02 02:42:44;;;;;;;13.17;6.83;;;3.10;99.90;;;;;;5095775;28;20874;-81
2022/03/02 02:45:15;;;;;;;10.47;7.20;;;3.10;99.90;;;;;;5095535;28;20443;-82
2022/03/02 02:47:41;;;;;;;11.60;6.40;;;3.10;99.90;;;;;;5095441;28;20878;-81
2022/03/02 02:50:18;;;;;;;12.83;7.50;;;3.20;99.90;;;;;;5095510;28;20495;-81
2022/03/02 02:52:44;;;;;;;9.07;6.80;;;3.20;99.90;;;;;;5095244;28;20452;-82
2022/03/02 02:55:11;;;;;;;11.17;6.07;;;3.10;99.90;;;;;;5077074;28;20451;-81
2022/03/02 02:57:37;;;;;;;10.40;6.43;;;3.10;99.90;;;;;;5076859;28;20205;-82
2022/03/02 03:00:08;;;;;;;11.10;6.20;;;3.10;99.90;;;;;;5095593;28;20430;-82
2022/03/02 03:02:33;;;;;;;14.20;7.10;;;3.20;99.90;;;;;;5095492;28;20166;-82
2022/03/02 03:04:59;;;;;;;12.03;6.93;;;3.20;99.90;;;;;;5095093;28;20453;-81
2022/03/02 03:07:25;;;;;;;10.30;6.63;;;3.20;99.90;;;;;;5094629;28;20206;-82
2022/03/02 03:09:51;;;;;;;11.47;6.80;;;3.20;99.90;;;;;;5095238;28;20189;-81
2022/03/02 03:12:17;;;;;;;9.00;5.70;;;3.20;99.90;;;;;;5094871;28;20450;-82
2022/03/02 03:14:42;;;;;;;11.17;7.57;;;3.20;99.90;;;;;;5094980;28;20677;-82
2022/03/02 03:17:08;;;;;;;9.53;7.40;;;3.20;99.90;;;;;;5094766;28;20184;-82
2022/03/02 03:19:34;;;;;;;10.30;6.93;;;3.20;99.90;;;;;;5094974;28;20169;-82
2022/03/02 03:22:07;;;;;;;12.27;7.60;;;3.20;99.90;;;;;;5094990;28;20174;-81
2022/03/02 03:24:33;;;;;;;11.13;6.63;;;3.20;99.90;;;;;;5094823;28;20245;-82
2022/03/02 03:26:59;;;;;;;10.97;5.40;;;3.20;99.90;;;;;;5094596;28;20925;-82
2022/03/02 03:29:25;;;;;;;10.10;6.90;;;3.30;99.90;;;;;;5094870;28;20852;-82
2022/03/02 03:31:51;;;;;;;11.47;7.43;;;3.30;99.90;;;;;;5076510;28;20468;-81
2022/03/02 03:34:16;;;;;;;12.00;7.40;;;3.30;99.90;;;;;;5094637;28;20573;-82
2022/03/02 03:36:42;;;;;;;12.83;6.20;;;3.40;99.90;;;;;;5076215;28;20669;-81
2022/03/02 03:39:09;;;;;;;9.90;6.47;;;3.40;99.90;;;;;;5076386;28;20431;-82
2022/03/02 03:41:35;;;;;;;10.43;6.30;;;3.40;99.90;;;;;;5094177;28;20425;-82
2022/03/02 03:44:01;;;;;;;10.23;6.37;;;3.40;99.90;;;;;;5076262;28;20420;-82
2022/03/02 03:46:27;;;;;;;12.17;7.63;;;3.50;99.90;;;;;;5094104;28;20418;-81
2022/03/02 03:48:52;;;;;;;10.50;6.93;;;3.50;99.90;;;;;;5094483;28;20421;-82
2022/03/02 03:51:18;;;;;;;11.90;7.20;;;3.50;99.90;;;;;;5094280;28;20211;-82
2022/03/02 03:53:43;;;;;;;10.37;6.80;;;3.60;99.90;;;;;;5094290;28;20217;-81
2022/03/02 03:56:09;;;;;;;11.60;6.90;;;3.60;99.90;;;;;;5075946;28;20206;-82
2022/03/02 03:58:35;;;;;;;11.33;7.67;;;3.70;99.90;;;;;;5094079;28;20189;-82
2022/03/02 04:01:00;;;;;;;9.67;5.40;;;3.70;99.90;;;;;;5076122;28;20220;-82
2022/03/02 04:03:27;;;;;;;9.90;6.37;;;3.70;99.90;;;;;;5075987;28;20428;-81
2022/03/02 04:05:52;;;;;;;15.27;7.90;;;3.80;99.90;;;;;;5075848;28;20249;-81
2022/03/02 04:08:18;;;;;;;9.43;6.17;;;3.80;99.90;;;;;;5093850;28;20447;-82
2022/03/02 04:10:45;;;;;;;11.97;7.23;;;3.90;99.90;;;;;;5094125;28;20183;-82
2022/03/02 04:13:11;;;;;;;10.50;6.50;;;3.90;99.90;;;;;;5093867;28;20452;-82
2022/03/02 04:15:38;;;;;;;11.77;7.23;;;4.00;99.90;;;;;;5093794;28;20448;-82
2022/03/02 04:18:06;;;;;;;10.60;6.10;;;4.10;99.90;;;;;;5093658;28;20941;-82
2022/03/02 04:20:32;;;;;;;14.60;7.00;;;4.10;99.90;;;;;;5093978;28;20416;-82
2022/03/02 04:22:57;;;;;;;8.50;6.47;;;4.10;99.90;;;;;;5075683;28;20425;-82
2022/03/02 04:25:23;;;;;;;9.67;6.20;;;4.20;99.90;;;;;;5094286;28;20796;-81
2022/03/02 04:27:49;;;;;;;9.27;6.40;;;4.20;99.90;;;;;;5093873;28;20189;-82
2022/03/02 04:30:14;;;;;;;12.60;7.07;;;4.20;99.90;;;;;;5094309;28;20181;-82
2022/03/02 04:32:41;;;;;;;8.30;5.87;;;4.30;99.90;;;;;;5076563;28;20217;-82
2022/03/02 04:35:09;;;;;;;12.50;7.87;;;4.30;99.90;;;;;;5095131;28;20202;-82
2022/03/02 04:37:35;;;;;;;9.47;6.43;;;4.40;99.90;;;;;;5094534;28;20420;-81
2022/03/02 04:40:02;;;;;;;10.33;6.70;;;4.40;99.90;;;;;;5093682;28;20468;-81
2022/03/02 04:42:28;;;;;;;10.33;7.03;;;4.40;99.90;;;;;;5093287;28;20416;-82
2022/03/02 04:44:53;;;;;;;8.57;6.90;;;4.50;99.90;;;;;;5093203;28;20432;-82
2022/03/02 04:47:19;;;;;;;9.67;7.27;;;4.50;99.90;;;;;;5092991;28;20645;-82
2022/03/02 04:49:44;;;;;;;11.70;7.13;;;4.50;99.90;;;;;;5074886;28;20555;-82
2022/03/02 04:52:10;;;;;;;9.40;6.17;;;4.50;99.90;;;;;;5093058;28;20679;-81
2022/03/02 04:57:19;;;;;;;10.77;6.27;;;4.50;99.90;;;;;;5092861;28;20173;-82
2022/03/02 04:59:45;;;;;;;10.83;6.83;;;4.50;99.90;;;;;;5093054;28;20900;-82
2022/03/02 05:02:10;;;;;;;10.50;6.70;;;4.50;99.90;;;;;;5092932;28;20205;-82
2022/03/02 05:04:36;;;;;;;12.00;7.50;;;4.60;99.90;;;;;;5092655;28;20214;-81
2022/03/02 05:07:01;;;;;;;10.90;6.70;;;4.60;99.90;;;;;;5092496;28;20183;-82
2022/03/02 05:09:27;;;;;;;11.93;7.03;;;4.60;99.90;;;;;;5092778;28;20708;-81
2022/03/02 05:11:53;;;;;;;12.53;6.80;;;4.60;99.90;;;;;;5074468;28;20206;-82
2022/03/02 05:14:19;;;;;;;11.30;6.50;;;4.60;99.90;;;;;;5074425;28;20238;-81
2022/03/02 05:16:44;;;;;;;9.10;6.73;;;4.70;99.90;;;;;;5092346;28;20411;-82
2022/03/02 05:19:10;;;;;;;9.20;6.50;;;4.70;99.90;;;;;;5092607;28;20186;-82
2022/03/02 05:21:36;;;;;;;12.03;7.73;;;4.60;99.90;;;;;;5092300;28;20173;-81
2022/03/02 05:24:02;;;;;;;11.43;6.50;;;4.70;99.90;;;;;;5092470;28;20440;-82
2022/03/02 05:26:28;;;;;;;10.10;6.70;;;4.70;99.90;;;;;;5092130;28;20178;-82
2022/03/02 05:28:53;;;;;;;9.70;6.37;;;4.70;99.90;;;;;;5092359;28;20172;-82
2022/03/02 05:31:20;;;;;;;11.47;7.97;;;4.70;99.90;;;;;;5092431;28;20182;-81
2022/03/02 05:33:46;;;;;;;10.37;7.30;;;4.70;99.90;;;;;;5092190;28;20197;-82
2022/03/02 05:36:11;;;;;;;10.97;7.23;;;4.60;99.90;;;;;;5074034;28;20446;-82
2022/03/02 05:38:37;;;;;;;12.60;6.97;;;4.60;99.90;;;;;;5092061;28;20412;-82
2022/03/02 05:41:02;;;;;;;11.50;7.10;;;4.60;99.90;;;;;;5092391;28;20174;-82
2022/03/02 05:43:28;;;;;;;11.93;7.07;;;4.50;99.90;;;;;;5092190;28;20907;-82
2022/03/02 05:45:53;;;;;;;13.20;7.87;;;4.50;99.90;;;;;;5092105;28;20669;-82
2022/03/02 05:48:19;;;;;;;11.00;7.20;;;4.50;99.90;;;;;;5091959;28;20227;-81
2022/03/02 05:50:44;;;;;;;12.23;6.77;;;4.50;99.90;;;;;;5092057;28;20269;-82
2022/03/02 05:53:10;;;;;;;11.50;7.50;;;4.40;99.90;;;;;;5092063;28;20212;-82
2022/03/02 05:55:36;;;;;;;10.87;7.10;;;4.40;99.90;;;;;;5091852;28;20193;-82
2022/03/02 05:58:01;;;;;;;14.60;7.90;;;4.40;99.90;;;;;;5092372;28;20691;-82
2022/03/02 06:00:27;;;;;;;9.93;6.90;;;4.40;99.90;;;;;;5074463;28;20518;-82
2022/03/02 06:02:53;;;;;;;11.00;7.70;;;4.30;99.90;;;;;;5092437;28;20174;-82
2022/03/02 06:05:18;;;;;;;10.60;6.63;;;4.30;99.90;;;;;;5087830;23;20224;-83
2022/03/02 06:07:44;;;;;;;14.80;8.07;;;4.40;99.90;;;;;;4999041;28;20180;-83
2022/03/02 06:10:11;;;;;;;10.83;6.47;;;4.30;99.90;;;;;;5015627;28;20181;-83
2022/03/02 06:12:37;;;;;;;10.27;6.57;;;4.30;99.90;;;;;;5015472;28;20239;-83
2022/03/02 06:15:04;;;;;;;12.37;7.80;;;4.30;99.90;;;;;;4999124;28;20439;-83
2022/03/02 06:17:29;;;;;;;10.73;8.00;;;4.30;99.90;;;;;;5016372;28;20438;-84
2022/03/02 06:19:55;;;;;;;10.60;7.10;;;4.30;99.90;;;;;;5015508;28;20424;-83
2022/03/02 06:22:25;;;;;;;12.10;7.10;;;4.20;99.90;;;;;;5015433;28;20195;-84
2022/03/02 06:24:54;;;;;;;12.17;7.47;;;4.20;99.90;;;;;;5015610;28;20295;-83
2022/03/02 06:27:21;;;;;;;10.37;7.00;;;4.20;99.90;;;;;;5015373;28;20424;-83
2022/03/02 06:29:47;;;;;;;11.80;6.93;;;4.20;99.90;;;;;;5015762;28;20427;-83
2022/03/02 06:32:13;;;;;;;11.23;7.00;;;4.20;99.90;;;;;;5015366;28;20836;-83
2022/03/02 06:34:39;;;;;;;11.27;7.80;;;4.20;99.90;;;;;;5015104;28;20185;-83
2022/03/02 06:37:06;;;;;;;11.40;7.60;;;4.20;99.90;;;;;;5014778;28;20191;-83
2022/03/02 06:39:31;;;;;;;11.03;6.40;;;4.20;99.90;;;;;;5015068;28;20191;-83
2022/03/02 06:42:38;;;;;;;9.80;7.47;;;4.10;99.90;;;;;;5015049;28;20581;-83
2022/03/02 06:45:23;;;;;;;12.20;6.60;;;4.10;99.90;;;;;;4969984;28;20577;-83
2022/03/02 06:47:57;;;;;;;12.93;6.50;;;4.20;99.90;;;;;;5014798;28;20404;-83
2022/03/02 06:50:25;;;;;;;10.90;7.40;;;4.20;99.90;;;;;;5016488;28;20399;-83
2022/03/02 06:52:54;;;;;;;13.83;7.40;;;4.20;99.90;;;;;;5014616;28;20453;-83
2022/03/02 06:55:21;;;;;;;12.77;7.40;;;4.20;99.90;;;;;;4998542;28;20813;-84
2022/03/02 06:57:59;;;;;;;10.37;6.70;;;4.20;99.90;;;;;;5014689;28;20537;-83
2022/03/02 07:00:25;;;;;;;10.50;7.30;;;4.20;99.90;;;;;;4998797;28;20424;-83
2022/03/02 07:03:09;;;;;;;11.23;7.17;;;4.20;99.90;;;;;;5015163;28;20459;-83
2022/03/02 07:05:39;;;;;;;13.57;6.80;;;4.20;99.90;;;;;;5014779;28;20545;-83
2022/03/02 07:08:05;;;;;;;10.87;7.00;;;4.20;99.90;;;;;;5015828;28;20423;-83
2022/03/02 07:10:37;;;;;;;11.57;7.83;;;4.20;99.90;;;;;;5014938;28;20927;-84
2022/03/02 07:13:05;;;;;;;11.57;7.87;;;4.20;99.90;;;;;;5014875;28;21061;-84
2022/03/02 07:15:32;;;;;;;8.97;6.90;;;4.30;99.90;;;;;;5014665;28;20450;-84
2022/03/02 07:18:02;;;;;;;12.27;8.23;;;4.30;99.90;;;;;;5015036;28;20418;-83
2022/03/02 07:20:29;;;;;;;10.60;6.60;;;4.40;99.90;;;;;;4998661;28;20451;-83
2022/03/02 07:22:57;;;;;;;14.03;8.40;;;4.50;99.90;;;;;;5014447;28;20435;-83
2022/03/02 07:25:33;;;;;;;13.83;8.17;;;4.50;99.90;;;;;;5014655;28;20497;-83
2022/03/02 07:28:00;;;;;;;10.70;7.07;;;4.60;99.90;;;;;;5015531;28;20442;-82
2022/03/02 07:30:28;;;;;;;10.73;8.00;;;4.70;99.90;;;;;;5014486;28;20467;-82
2022/03/02 07:33:14;;;;;;;12.70;7.03;;;4.70;99.90;;;;;;5015598;28;20452;-83
2022/03/02 07:35:41;;;;;;;10.33;7.83;;;4.80;99.90;;;;;;5015734;28;21135;-83
2022/03/02 07:38:08;;;;;;;14.03;7.50;;;4.90;99.90;;;;;;5013974;28;20483;-83
2022/03/02 07:40:34;;;;;;;16.27;8.40;;;4.90;99.90;;;;;;5014356;28;20795;-83
2022/03/02 07:43:00;;;;;;;19.10;8.40;;;5.00;99.90;;;;;;5014901;28;20936;-83
2022/03/02 07:45:26;;;;;;;15.33;8.33;;;5.00;99.90;;;;;;5013969;28;20505;-83
2022/03/02 07:47:52;;;;;;;13.67;8.00;;;5.10;99.90;;;;;;5013780;28;20311;-83
2022/03/02 07:50:17;;;;;;;15.60;8.60;;;5.20;99.90;;;;;;5014109;28;20462;-84
2022/03/02 07:52:51;;;;;;;12.60;9.57;;;5.20;99.90;;;;;;5017138;28;20212;-84
2022/03/02 07:55:17;;;;;;;16.20;10.30;;;5.30;99.90;;;;;;5026444;28;20205;-84
2022/03/02 07:57:44;;;;;;;12.90;7.57;;;5.40;99.90;;;;;;5025567;28;20420;-84
2022/03/02 08:00:12;;;;;;;11.40;7.23;;;5.50;99.90;;;;;;5025623;28;20428;-84
2022/03/02 08:02:40;;;;;;;10.57;7.70;;;5.60;99.90;;;;;;5018827;28;20449;-84
2022/03/02 08:05:06;;;;;;;11.33;7.87;;;5.70;99.90;;;;;;5013186;28;20458;-83
2022/03/02 08:07:34;;;;;;;10.43;7.27;;;5.80;99.90;;;;;;5014028;28;20423;-83
2022/03/02 08:10:00;;;;;;;10.43;6.80;;;6.00;99.90;;;;;;5015094;28;20442;-84
2022/03/02 08:12:26;;;;;;;10.00;7.20;;;6.10;99.90;;;;;;5013601;28;20457;-84
2022/03/02 08:14:53;;;;;;;14.87;7.97;;;6.20;99.90;;;;;;5013523;28;20438;-83
2022/03/02 08:17:19;;;;;;;10.67;7.23;;;6.20;99.90;;;;;;5013411;28;20938;-84
2022/03/02 08:19:46;;;;;;;12.67;7.70;;;6.30;99.90;;;;;;5013251;28;20415;-84
2022/03/02 08:22:21;;;;;;;9.00;6.53;;;6.40;99.90;;;;;;5013397;28;20513;-84
2022/03/02 08:25:01;;;;;;;11.43;7.20;;;6.50;99.90;;;;;;4999699;28;20446;-85
2022/03/02 08:27:30;;;;;;;11.13;7.33;;;6.60;99.90;;;;;;5028077;28;20438;-83
2022/03/02 08:29:56;;;;;;;11.13;7.07;;;6.70;99.90;;;;;;4996705;28;20426;-84
2022/03/02 08:32:24;;;;;;;10.40;8.30;;;6.70;99.90;;;;;;5014662;28;20455;-84
2022/03/02 08:34:51;;;;;;;10.97;8.53;;;6.70;99.90;;;;;;4997071;28;20477;-80
2022/03/02 08:37:19;;;;;;;10.10;7.37;;;6.80;99.90;;;;;;5013086;28;20412;-84
2022/03/02 08:39:46;;;;;;;11.07;7.43;;;6.90;99.90;;;;;;4997367;28;20420;-87
2022/03/02 08:42:12;;;;;;;9.63;7.17;;;7.00;99.90;;;;;;4997857;28;20482;-86
2022/03/02 08:44:38;;;;;;;15.80;8.20;;;7.20;99.90;;;;;;5014378;28;20427;-84
2022/03/02 08:47:05;;;;;;;9.97;6.97;;;7.30;99.90;;;;;;5016663;28;20188;-84
2022/03/02 08:49:31;;;;;;;10.57;7.73;;;7.40;99.90;;;;;;5021447;28;20515;-85
2022/03/02 08:51:58;;;;;;;11.17;8.20;;;7.60;99.90;;;;;;5026353;28;20501;-85
2022/03/02 08:54:26;;;;;;;9.00;6.43;;;7.70;99.90;;;;;;5027566;28;20426;-86
2022/03/02 08:56:53;;;;;;;10.43;7.10;;;7.80;99.90;;;;;;5023960;28;20442;-85
2022/03/02 08:59:20;;;;;;;9.70;6.77;;;7.90;99.90;;;;;;5019423;28;20861;-84
2022/03/02 09:01:54;;;;;;;11.47;7.37;;;8.00;99.90;;;;;;5015528;28;20419;-84
2022/03/02 09:04:29;;;;;;;11.73;8.23;;;8.00;99.10;;;;;;5031784;28;20494;-83
2022/03/02 09:06:55;;;;;;;7.73;6.03;;;8.00;98.60;;;;;;5032673;28;20901;-83
2022/03/02 09:09:21;;;;;;;11.17;6.80;;;8.10;97.60;;;;;;5031390;28;20449;-84
2022/03/02 09:11:47;;;;;;;13.30;7.37;;;8.10;96.70;;;;;;5014921;28;20411;-84
2022/03/02 09:14:13;;;;;;;11.30;6.80;;;8.20;95.90;;;;;;5015212;28;20184;-84
2022/03/02 09:16:39;;;;;;;11.00;7.13;;;8.20;96.00;;;;;;5030738;28;20207;-85
2022/03/02 09:19:06;;;;;;;12.80;7.40;;;8.30;93.20;;;;;;5030606;28;20767;-84
2022/03/02 09:21:32;;;;;;;9.97;7.03;;;8.30;94.00;;;;;;4995768;28;20428;-84
2022/03/02 09:23:58;;;;;;;12.50;7.27;;;8.40;92.50;;;;;;5013001;28;20463;-84
2022/03/02 09:26:24;;;;;;;9.97;7.20;;;8.40;92.90;;;;;;4994963;28;20513;-84
2022/03/02 09:28:52;;;;;;;9.00;6.80;;;8.50;93.90;;;;;;4997129;28;20211;-85
2022/03/02 09:31:20;;;;;;;9.27;7.00;;;8.50;93.70;;;;;;5002441;28;20181;-84
2022/03/02 09:34:08;;;;;;;10.03;6.80;;;8.60;93.00;;;;;;4995375;28;20482;-84
2022/03/02 09:36:39;;;;;;;11.80;6.57;;;8.70;93.20;;;;;;5012279;28;20519;-84
2022/03/02 09:39:07;;;;;;;8.80;6.67;;;8.80;92.30;;;;;;5011158;28;20805;-85
2022/03/02 09:41:49;;;;;;;11.57;8.57;;;8.80;90.00;;;;;;4997150;28;20416;-85
2022/03/02 09:44:20;;;;;;;8.20;6.23;;;8.90;87.20;;;;;;5006851;28;20859;-85
2022/03/02 09:46:49;;;;;;;8.87;6.97;;;9.00;87.70;;;;;;5005205;28;20439;-85
2022/03/02 09:49:21;;;;;;;11.10;7.27;;;9.10;87.30;;;;;;5006614;28;20420;-85
2022/03/02 09:51:52;;;;;;;11.40;7.27;;;9.10;89.20;;;;;;4998727;28;20965;-84
2022/03/02 09:54:22;;;;;;;10.57;7.60;;;9.20;87.50;;;;;;4995208;28;20450;-84
2022/03/02 09:56:50;;;;;;;12.83;8.20;;;9.20;86.20;;;;;;4995752;28;20416;-85
2022/03/02 09:59:17;;;;;;;7.73;6.90;;;9.30;86.40;;;;;;4994988;28;20416;-84
2022/03/02 10:01:44;;;;;;;12.70;7.80;;;9.40;83.70;;;;;;4994651;28;20444;-85
2022/03/02 10:04:13;;;;;;;8.60;6.60;;;9.50;85.30;;;;;;5012673;28;20404;-84
2022/03/02 10:06:43;;;;;;;9.63;6.93;;;9.60;85.00;;;;;;5011947;28;20507;-83
2022/03/02 10:09:11;;;;;;;11.77;7.30;;;9.70;80.40;;;;;;5012359;28;20404;-85
2022/03/02 10:11:43;;;;;;;11.10;6.80;;;9.90;82.10;;;;;;4996530;28;20723;-85
2022/03/02 10:14:10;;;;;;;9.13;7.03;;;10.00;77.00;;;;;;5003339;28;20426;-85
2022/03/02 10:16:45;;;;;;;11.17;7.10;;;10.10;74.10;;;;;;5002142;28;20432;-85
2022/03/02 10:19:21;;;;;;;10.57;6.97;;;10.10;73.10;;;;;;4996674;28;20483;-83
2022/03/02 10:22:09;;;;;;;11.23;6.60;;;10.20;74.40;;;;;;5024021;28;20424;-83
2022/03/02 10:24:48;;;;;;;8.83;6.90;;;10.40;71.90;;;;;;5030692;28;20415;-81
2022/03/02 10:27:54;;;;;;;8.47;6.40;;;10.50;70.40;;;;;;5031844;28;20404;-83
2022/03/02 10:30:20;;;;;;;10.17;7.20;;;10.70;67.70;;;;;;5014272;28;20411;-83
2022/03/02 10:32:49;;;;;;;7.53;6.50;;;11.00;65.30;;;;;;5014020;28;20462;-83
2022/03/02 10:35:21;;;;;;;9.27;7.40;;;12.50;62.80;;;;;;5013745;28;20703;-83
2022/03/02 10:38:02;;;;;;;9.67;7.00;;;18.10;49.60;;;;;;5014234;28;20758;-81
2022/03/02 10:40:32;;;;;;;10.60;7.17;;;20.10;44.50;;;;;;5014246;28;20460;-82
2022/03/02 10:43:05;;;;;;;9.23;7.17;;;20.30;44.90;;;;;;5031316;28;20426;-82
2022/03/02 10:45:44;;;;;;;9.63;7.20;;;22.80;39.80;;;;;;5013609;28;20451;-82
2022/03/02 10:48:25;;;;;;;9.97;7.63;;;24.90;36.00;;;;;;5031020;28;20411;-82
2022/03/02 10:50:55;;;;;;;9.77;7.33;;;26.80;33.00;;;;;;5008357;28;20961;-82
2022/03/02 10:53:22;;;;;;;8.27;7.30;;;;;;;;;;5016632;28;20455;-83
2022/03/02 10:55:48;;;;;;;8.37;7.00;;;29.90;28.70;;;;;;5015851;28;20951;-83
2022/03/02 10:58:19;;;;;;;9.53;8.57;;;31.10;25.70;;;;;;5015106;28;20861;-82
2022/03/02 11:00:47;;;;;;;7.93;7.13;;;32.60;25.40;;;;;;5015203;28;20432;-83
2022/03/02 11:03:15;;;;;;;7.73;7.03;;;32.60;23.30;;;;;;5018852;28;20478;-84
2022/03/02 11:05:41;;;;;;;9.00;7.07;;;32.80;22.70;;;;;;5036259;28;20455;-83
2022/03/02 11:08:07;;;;;;;9.23;8.30;;;33.30;22.00;;;;;;5017466;28;20561;-82
2022/03/02 11:10:37;;;;;;;9.03;8.13;;;33.60;22.50;;;;;;5017160;28;20181;-82
2022/03/02 11:13:11;;;;;;;9.57;7.37;;;34.10;22.70;;;;;;5017961;28;20465;-84
2022/03/02 11:15:46;;;;;;;9.00;7.97;;;34.00;21.60;;;;;;5014968;28;20469;-82
2022/03/02 11:18:17;;;;;;;8.67;7.77;;;33.70;20.90;;;;;;5013650;28;20426;-82
2022/03/02 11:20:57;;;;;;;9.63;7.17;;;32.30;20.70;;;;;;5031424;28;20971;-83
2022/03/02 11:23:23;;;;;;;7.37;6.67;;;32.50;21.90;;;;;;5016279;28;20486;-83
2022/03/02 11:25:52;;;;;;;7.57;6.87;;;33.50;22.00;;;;;;5016305;28;20439;-82
2022/03/02 11:28:20;;;;;;;7.90;7.10;;;33.20;20.00;;;;;;5034212;28;20418;-83
2022/03/02 11:30:54;;;;;;;8.87;7.83;;;33.20;20.90;;;;;;5016722;28;20419;-82
2022/03/02 11:33:26;;;;;;;10.30;7.73;;;32.70;21.60;;;;;;5016896;28;20414;-81
2022/03/02 11:35:59;;;;;;;7.77;7.03;;;32.90;22.90;;;;;;5016759;28;20825;-82
2022/03/02 11:38:29;;;;;;;8.90;7.13;;;32.10;22.50;;;;;;5015966;28;20938;-81
2022/03/02 11:40:54;;;;;;;8.77;7.83;;;;;;;;;;5020969;28;20961;-82
2022/03/02 11:43:25;;;;;;;11.97;8.47;;;29.40;20.60;;;;;;5039319;28;20529;-82
2022/03/02 11:45:56;;;;;;;10.77;8.60;;;28.60;22.60;;;;;;5039867;28;20220;-81
2022/03/02 11:48:28;;;;;;;8.53;7.73;;;28.70;22.20;;;;;;5039203;28;20454;-82
2022/03/02 11:51:05;;;;;;;9.03;7.13;;;28.90;22.20;;;;;;5021769;28;20415;-81
2022/03/02 11:53:40;;;;;;;8.50;6.97;;;28.20;22.70;;;;;;5035463;28;20410;-81
2022/03/02 11:56:08;;;;;;;8.50;6.67;;;28.00;22.50;;;;;;5037047;28;20492;-82
2022/03/02 11:58:54;;;;;;;7.50;6.73;;;28.80;24.20;;;;;;5018158;28;20415;-83
2022/03/02 12:01:20;;;;;;;9.23;6.83;;;29.10;22.90;;;;;;5013707;28;20435;-84
2022/03/02 12:04:01;;;;;;;7.40;6.60;;;30.10;23.50;;;;;;5017840;28;20462;-83
2022/03/02 12:06:28;;;;;;;7.40;6.63;;;31.00;22.40;;;;;;5017441;28;20510;-83
2022/03/02 12:08:56;;;;;;;7.90;7.03;;;30.50;22.20;;;;;;5035302;28;20414;-83
2022/03/02 12:11:26;;;;;;;8.50;7.20;;;30.50;22.00;;;;;;5017440;28;20411;-83
2022/03/02 12:14:09;;;;;;;9.20;7.17;;;31.00;21.90;;;;;;5035500;28;20904;-82
2022/03/02 12:16:44;;;;;;;8.37;7.47;;;31.80;21.70;;;;;;5035064;28;20430;-83
2022/03/02 12:19:26;;;;;;;7.53;6.57;;;32.60;21.30;;;;;;5017401;28;20403;-84
2022/03/02 12:22:00;;;;;;;6.93;6.23;;;33.10;20.80;;;;;;5017394;28;20426;-83
2022/03/02 12:24:30;;;;;;;8.30;6.77;;;32.90;20.00;;;;;;5033466;28;20894;-83
2022/03/02 12:27:17;;;;;;;7.90;6.87;;;31.70;20.60;;;;;;5015487;28;21005;-83
2022/03/02 12:29:45;;;;;;;7.60;6.80;;;;;;;;;;5015779;28;20426;-83
2022/03/02 12:32:16;;;;;;;7.63;6.93;;;28.10;20.80;;;;;;5033444;28;20407;-82
2022/03/02 12:34:50;;;;;;;8.53;6.70;;;26.80;22.40;;;;;;5015701;28;20451;-82
2022/03/02 12:37:17;;;;;;;7.73;6.73;;;25.30;22.50;;;;;;5015413;28;20786;-82
2022/03/02 12:39:44;;;;;;;7.60;6.27;;;23.90;23.60;;;;;;5015752;28;20422;-82
2022/03/02 12:42:11;;;;;;;7.90;6.60;;;23.20;24.10;;;;;;5032986;28;20559;-82
2022/03/02 12:44:41;;;;;;;7.53;6.43;;;24.20;24.90;;;;;;5015319;28;20422;-82
2022/03/02 12:47:10;;;;;;;9.60;7.40;;;25.70;23.30;;;;;;5015015;28;20404;-82
2022/03/02 12:49:39;;;;;;;8.50;7.13;;;27.20;23.60;;;;;;5015300;28;20446;-82
2022/03/02 12:52:05;;;;;;;7.73;7.03;;;28.80;23.20;;;;;;5032821;28;20419;-83
2022/03/02 12:54:33;;;;;;;8.27;6.20;;;30.10;22.10;;;;;;5015244;28;20427;-83
2022/03/02 12:57:02;;;;;;;7.57;6.77;;;30.50;21.70;;;;;;5014427;28;20551;-83